Hauptseite
METAR-TAF:

METAR-TAF

Flughäfen :

Flughafen Funafuti

Funafuti, Tuvalu

Breite: 08-31S, Länge: 179-13E, Höhe: 1 m

Beobachtung

Neuester Wetterbericht von vor 31 Minuten, um 16:00 UTC
Wind 5 kt aus West/Nordwest
Temperatur 28°C
Luftfeuchtigkeit 84%
Luftdruck 1006 hPa
Sichtweite 10 km oder mehr
Aufgelockert bewölkt in der Höhe von 2000 ft

METAR: NGFU 251600Z 29005KT 9999 SCT020 28/25 Q1006

Zeit: 04:31 (16:31 UTC)

Prognose

Neuester Wetterbericht von vor 5 Stunden und 19 Minuten, um 11:12 UTC
Gültige Prognose vom 25 um 12 UTC bis 26 um 12 UTC
Wind 4 kt aus West/Nordwest
Sichtweite 10 km oder mehr
Aufgelockert bewölkt in der Höhe von 1800 ft
Wahrscheinlichkeit 30% :
Zeitweise
vom 25 um 12 UTC bis 25 um 18 UTC
Sichtweite: 5000 m
Leicht bewölkt in der Höhe von 1700 ft, Kumulonimbus.
Gewitter, Regen

TAF: NGFU 251112Z 2512/2612 29004KT 9999 SCT018 PROB30 TEMPO 2512/2518 5000 TSRA FEW017CB

Wetterbeobachtungen und Prognosen von mehr als 4000 Flughäfen (METAR und TAF Bericht).

Die verfügbaren Stationen werden durch gelbe und rote Markierungen auf der Karte dargestellt.

Führen Sie die Maus auf sie, um den Namen der Station zu sehen.

Darauf klicken, um die Beobachtung von Wetterbeobachtungen und Prognosen zu sehen.

Um die Karte zu ändern : klicken Sie auf den grünen Tasten mit einem schwarzen Kreuz Zum Vergrößern, auf den grünen Button mit einem Gedankenstrich zu verkleinern, oder auf die grünen Pfeile für benachbarte Karten.


METAR-TAF: